sensor_id;sensor_type;location;lat;lon;timestamp;pressure;altitude;pressure_sealevel;temperature;humidity
59531;BME280;45349;48.692;8.186;2022-07-01T00:00:06;98770.28;;;15.07;96.15
59531;BME280;45349;48.692;8.186;2022-07-01T00:02:40;98768.00;;;15.03;96.10
59531;BME280;45349;48.692;8.186;2022-07-01T00:05:07;98776.53;;;15.05;95.70
59531;BME280;45349;48.692;8.186;2022-07-01T00:07:44;98777.63;;;15.11;96.55
59531;BME280;45349;48.692;8.186;2022-07-01T00:10:10;98772.28;;;15.04;92.49
59531;BME280;45349;48.692;8.186;2022-07-01T00:12:37;98774.69;;;15.06;93.27
59531;BME280;45349;48.692;8.186;2022-07-01T00:15:05;98771.28;;;15.05;94.09
59531;BME280;45349;48.692;8.186;2022-07-01T00:17:32;98768.75;;;15.12;93.54
59531;BME280;45349;48.692;8.186;2022-07-01T00:20:01;98766.38;;;15.02;92.26
59531;BME280;45349;48.692;8.186;2022-07-01T00:22:27;98766.38;;;15.02;92.16
59531;BME280;45349;48.692;8.186;2022-07-01T00:24:55;98766.06;;;14.97;92.25
59531;BME280;45349;48.692;8.186;2022-07-01T00:27:21;98773.59;;;15.00;93.77
59531;BME280;45349;48.692;8.186;2022-07-01T00:29:49;98765.88;;;14.99;92.84
59531;BME280;45349;48.692;8.186;2022-07-01T00:32:16;98787.75;;;14.99;92.60
59531;BME280;45349;48.692;8.186;2022-07-01T00:34:44;98791.88;;;14.94;92.51
59531;BME280;45349;48.692;8.186;2022-07-01T00:37:12;98791.88;;;14.94;92.50
59531;BME280;45349;48.692;8.186;2022-07-01T00:39:38;98783.63;;;14.97;93.97
59531;BME280;45349;48.692;8.186;2022-07-01T00:42:06;98800.59;;;14.94;93.99
59531;BME280;45349;48.692;8.186;2022-07-01T00:44:33;98791.88;;;14.94;92.89
59531;BME280;45349;48.692;8.186;2022-07-01T00:47:03;98801.41;;;14.95;93.09
59531;BME280;45349;48.692;8.186;2022-07-01T00:49:35;98804.56;;;14.90;91.64
59531;BME280;45349;48.692;8.186;2022-07-01T00:52:03;98794.84;;;14.90;92.50
59531;BME280;45349;48.692;8.186;2022-07-01T00:54:35;98796.28;;;15.01;93.34
59531;BME280;45349;48.692;8.186;2022-07-01T00:57:06;98788.19;;;15.03;93.34
59531;BME280;45349;48.692;8.186;2022-07-01T00:59:33;98800.41;;;14.96;91.41
59531;BME280;45349;48.692;8.186;2022-07-01T01:02:00;98805.97;;;15.01;92.46
59531;BME280;45349;48.692;8.186;2022-07-01T01:04:27;98802.03;;;14.97;91.37
59531;BME280;45349;48.692;8.186;2022-07-01T01:06:55;98799.94;;;14.92;91.00
59531;BME280;45349;48.692;8.186;2022-07-01T01:09:22;98800.94;;;14.91;90.47
59531;BME280;45349;48.692;8.186;2022-07-01T01:11:50;98805.25;;;14.84;91.11
59531;BME280;45349;48.692;8.186;2022-07-01T01:14:18;98799.66;;;14.87;89.79
59531;BME280;45349;48.692;8.186;2022-07-01T01:16:45;98811.50;;;14.83;89.51
59531;BME280;45349;48.692;8.186;2022-07-01T01:19:12;98807.59;;;14.79;90.07
59531;BME280;45349;48.692;8.186;2022-07-01T01:21:40;98804.81;;;14.80;90.63
59531;BME280;45349;48.692;8.186;2022-07-01T01:24:08;98802.81;;;14.82;91.24
59531;BME280;45349;48.692;8.186;2022-07-01T01:26:35;98798.38;;;14.83;91.82
59531;BME280;45349;48.692;8.186;2022-07-01T01:29:04;98798.56;;;14.81;92.36
59531;BME280;45349;48.692;8.186;2022-07-01T01:31:33;98796.56;;;14.83;91.80
59531;BME280;45349;48.692;8.186;2022-07-01T01:34:02;98790.28;;;14.84;92.34
59531;BME280;45349;48.692;8.186;2022-07-01T01:36:29;98793.56;;;14.86;93.17
59531;BME280;45349;48.692;8.186;2022-07-01T01:38:58;98784.59;;;14.81;92.13
59531;BME280;45349;48.692;8.186;2022-07-01T01:41:28;98784.94;;;14.78;91.70
59531;BME280;45349;48.692;8.186;2022-07-01T01:43:56;98773.63;;;14.77;91.96
59531;BME280;45349;48.692;8.186;2022-07-01T01:46:22;98788.56;;;14.68;90.96
59531;BME280;45349;48.692;8.186;2022-07-01T01:48:50;98779.06;;;14.67;92.04
59531;BME280;45349;48.692;8.186;2022-07-01T01:51:17;98785.28;;;14.66;90.96
59531;BME280;45349;48.692;8.186;2022-07-01T01:53:45;98766.91;;;14.66;92.03
59531;BME280;45349;48.692;8.186;2022-07-01T01:56:14;98784.50;;;14.66;93.86
59531;BME280;45349;48.692;8.186;2022-07-01T01:58:41;98797.63;;;14.66;94.46
59531;BME280;45349;48.692;8.186;2022-07-01T02:01:09;98800.59;;;14.71;95.54
59531;BME280;45349;48.692;8.186;2022-07-01T02:03:36;98800.25;;;14.74;95.52
59531;BME280;45349;48.692;8.186;2022-07-01T02:06:03;98803.31;;;14.78;95.97
59531;BME280;45349;48.692;8.186;2022-07-01T02:08:31;98798.41;;;14.74;96.16
59531;BME280;45349;48.692;8.186;2022-07-01T02:10:58;98782.84;;;14.73;97.53
59531;BME280;45349;48.692;8.186;2022-07-01T02:13:27;98793.19;;;14.66;97.01
59531;BME280;45349;48.692;8.186;2022-07-01T02:15:54;98795.16;;;14.64;96.66
59531;BME280;45349;48.692;8.186;2022-07-01T02:18:21;98803.22;;;14.63;97.23
59531;BME280;45349;48.692;8.186;2022-07-01T02:20:49;98805.56;;;14.57;97.89
59531;BME280;45349;48.692;8.186;2022-07-01T02:23:16;98799.47;;;14.57;99.09
59531;BME280;45349;48.692;8.186;2022-07-01T02:25:43;98796.69;;;14.58;99.64
59531;BME280;45349;48.692;8.186;2022-07-01T02:28:12;98786.88;;;14.52;99.98
59531;BME280;45349;48.692;8.186;2022-07-01T02:30:40;98782.09;;;14.47;99.69
59531;BME280;45349;48.692;8.186;2022-07-01T02:33:08;98776.69;;;14.49;100.00
59531;BME280;45349;48.692;8.186;2022-07-01T02:35:37;98782.09;;;14.47;100.00
59531;BME280;45349;48.692;8.186;2022-07-01T02:38:06;98786.06;;;14.43;100.00
59531;BME280;45349;48.692;8.186;2022-07-01T02:40:33;98804.28;;;14.45;100.00
59531;BME280;45349;48.692;8.186;2022-07-01T02:43:03;98801.31;;;14.48;100.00
59531;BME280;45349;48.692;8.186;2022-07-01T02:45:30;98808.06;;;14.42;100.00
59531;BME280;45349;48.692;8.186;2022-07-01T02:47:58;98803.00;;;14.41;100.00
59531;BME280;45349;48.692;8.186;2022-07-01T02:50:27;98794.13;;;14.42;100.00
59531;BME280;45349;48.692;8.186;2022-07-01T02:52:55;98783.66;;;14.34;100.00
59531;BME280;45349;48.692;8.186;2022-07-01T02:55:22;98780.13;;;14.18;100.00
59531;BME280;45349;48.692;8.186;2022-07-01T02:57:49;98790.97;;;14.15;100.00
59531;BME280;45349;48.692;8.186;2022-07-01T03:00:19;98785.59;;;14.08;100.00
59531;BME280;45349;48.692;8.186;2022-07-01T03:02:46;98781.13;;;14.09;100.00
59531;BME280;45349;48.692;8.186;2022-07-01T03:05:15;98786.75;;;13.89;100.00
59531;BME280;45349;48.692;8.186;2022-07-01T03:07:42;98797.75;;;13.93;100.00
59531;BME280;45349;48.692;8.186;2022-07-01T03:10:10;98810.06;;;13.84;100.00
59531;BME280;45349;48.692;8.186;2022-07-01T03:12:55;98820.91;;;13.81;100.00
59531;BME280;45349;48.692;8.186;2022-07-01T03:15:23;98825.34;;;13.80;100.00
59531;BME280;45349;48.692;8.186;2022-07-01T03:17:51;98823.38;;;13.82;100.00
59531;BME280;45349;48.692;8.186;2022-07-01T03:20:19;98822.72;;;13.80;100.00
59531;BME280;45349;48.692;8.186;2022-07-01T03:22:46;98824.16;;;13.83;100.00
59531;BME280;45349;48.692;8.186;2022-07-01T03:25:14;98833.34;;;13.87;100.00
59531;BME280;45349;48.692;8.186;2022-07-01T03:27:41;98834.19;;;13.87;100.00
59531;BME280;45349;48.692;8.186;2022-07-01T03:30:11;98830.25;;;13.92;100.00
59531;BME280;45349;48.692;8.186;2022-07-01T03:32:39;98822.19;;;13.93;100.00
59531;BME280;45349;48.692;8.186;2022-07-01T03:35:06;98829.59;;;13.90;100.00
59531;BME280;45349;48.692;8.186;2022-07-01T03:37:49;98835.47;;;13.92;100.00
59531;BME280;45349;48.692;8.186;2022-07-01T03:40:16;98856.63;;;13.98;100.00
59531;BME280;45349;48.692;8.186;2022-07-01T03:42:43;98869.72;;;14.07;100.00
59531;BME280;45349;48.692;8.186;2022-07-01T03:45:10;98877.75;;;14.13;100.00
59531;BME280;45349;48.692;8.186;2022-07-01T03:47:37;98877.25;;;14.10;100.00
59531;BME280;45349;48.692;8.186;2022-07-01T03:50:05;98886.78;;;14.11;100.00
59531;BME280;45349;48.692;8.186;2022-07-01T03:52:32;98896.78;;;14.15;100.00
59531;BME280;45349;48.692;8.186;2022-07-01T03:55:19;98891.53;;;14.15;100.00
59531;BME280;45349;48.692;8.186;2022-07-01T03:57:45;98893.53;;;14.13;100.00
59531;BME280;45349;48.692;8.186;2022-07-01T04:00:12;98882.84;;;14.15;100.00
59531;BME280;45349;48.692;8.186;2022-07-01T04:02:40;98884.16;;;14.11;100.00
59531;BME280;45349;48.692;8.186;2022-07-01T04:05:07;98878.09;;;14.10;100.00
59531;BME280;45349;48.692;8.186;2022-07-01T04:07:34;98889.41;;;14.11;100.00
59531;BME280;45349;48.692;8.186;2022-07-01T04:10:02;98892.69;;;14.13;100.00
59531;BME280;45349;48.692;8.186;2022-07-01T04:12:30;98880.06;;;14.16;100.00
59531;BME280;45349;48.692;8.186;2022-07-01T04:14:57;98881.84;;;14.16;100.00
59531;BME280;45349;48.692;8.186;2022-07-01T04:17:24;98884.81;;;14.13;100.00
59531;BME280;45349;48.692;8.186;2022-07-01T04:19:51;98901.53;;;14.12;100.00
59531;BME280;45349;48.692;8.186;2022-07-01T04:22:18;98902.38;;;14.12;100.00
59531;BME280;45349;48.692;8.186;2022-07-01T04:24:59;98896.28;;;14.12;100.00
59531;BME280;45349;48.692;8.186;2022-07-01T04:27:30;98893.00;;;14.18;100.00
59531;BME280;45349;48.692;8.186;2022-07-01T04:29:57;98890.91;;;14.13;100.00
59531;BME280;45349;48.692;8.186;2022-07-01T04:32:25;98897.91;;;14.21;100.00
59531;BME280;45349;48.692;8.186;2022-07-01T04:34:52;98897.75;;;14.23;100.00
59531;BME280;45349;48.692;8.186;2022-07-01T04:37:19;98911.69;;;14.23;98.98
59531;BME280;45349;48.692;8.186;2022-07-01T04:39:46;98906.13;;;14.26;99.45
59531;BME280;45349;48.692;8.186;2022-07-01T04:42:13;98908.59;;;14.28;99.67
59531;BME280;45349;48.692;8.186;2022-07-01T04:44:42;98900.84;;;14.26;100.00
59531;BME280;45349;48.692;8.186;2022-07-01T04:47:09;98883.47;;;14.25;100.00
59531;BME280;45349;48.692;8.186;2022-07-01T04:49:36;98874.59;;;14.26;100.00
59531;BME280;45349;48.692;8.186;2022-07-01T04:52:04;98869.84;;;14.30;99.79
59531;BME280;45349;48.692;8.186;2022-07-01T04:54:49;98864.88;;;14.35;99.61
59531;BME280;45349;48.692;8.186;2022-07-01T04:57:17;98875.88;;;14.39;98.39
59531;BME280;45349;48.692;8.186;2022-07-01T04:59:45;98884.41;;;14.41;98.42
59531;BME280;45349;48.692;8.186;2022-07-01T05:02:12;98879.94;;;14.50;97.74
59531;BME280;45349;48.692;8.186;2022-07-01T05:04:39;98874.53;;;14.51;95.58
59531;BME280;45349;48.692;8.186;2022-07-01T05:07:07;98875.97;;;14.54;96.30
59531;BME280;45349;48.692;8.186;2022-07-01T05:09:54;98867.44;;;14.52;96.38
59531;BME280;45349;48.692;8.186;2022-07-01T05:12:21;98875.53;;;14.50;95.22
59531;BME280;45349;48.692;8.186;2022-07-01T05:14:50;98879.78;;;14.51;98.21
59531;BME280;45349;48.692;8.186;2022-07-01T05:17:17;98878.94;;;14.51;99.23
59531;BME280;45349;48.692;8.186;2022-07-01T05:19:44;98878.16;;;14.50;98.79
59531;BME280;45349;48.692;8.186;2022-07-01T05:22:29;98873.22;;;14.47;98.05
59531;BME280;45349;48.692;8.186;2022-07-01T05:24:57;98859.28;;;14.38;97.81
59531;BME280;45349;48.692;8.186;2022-07-01T05:27:24;98870.09;;;14.43;98.96
59531;BME280;45349;48.692;8.186;2022-07-01T05:29:52;98869.47;;;14.41;98.33
59531;BME280;45349;48.692;8.186;2022-07-01T05:32:19;98869.78;;;14.38;98.29
59531;BME280;45349;48.692;8.186;2022-07-01T05:34:46;98895.25;;;14.38;98.75
59531;BME280;45349;48.692;8.186;2022-07-01T05:37:13;98897.69;;;14.39;100.00
59531;BME280;45349;48.692;8.186;2022-07-01T05:39:42;98899.34;;;14.40;100.00
59531;BME280;45349;48.692;8.186;2022-07-01T05:42:10;98910.66;;;14.41;99.85
59531;BME280;45349;48.692;8.186;2022-07-01T05:44:37;98911.81;;;14.38;99.64
59531;BME280;45349;48.692;8.186;2022-07-01T05:47:05;98916.59;;;14.35;98.22
59531;BME280;45349;48.692;8.186;2022-07-01T05:49:32;98918.88;;;14.38;97.61
59531;BME280;45349;48.692;8.186;2022-07-01T05:52:00;98924.78;;;14.40;97.35
59531;BME280;45349;48.692;8.186;2022-07-01T05:54:26;98925.59;;;14.40;97.21
59531;BME280;45349;48.692;8.186;2022-07-01T05:56:54;98928.09;;;14.34;96.62
59531;BME280;45349;48.692;8.186;2022-07-01T05:59:20;98926.91;;;14.44;96.49
59531;BME280;45349;48.692;8.186;2022-07-01T06:01:47;98929.03;;;14.49;97.26
59531;BME280;45349;48.692;8.186;2022-07-01T06:04:17;98919.53;;;14.48;97.77
59531;BME280;45349;48.692;8.186;2022-07-01T06:06:44;98921.97;;;14.50;97.26
59531;BME280;45349;48.692;8.186;2022-07-01T06:09:11;98928.84;;;14.51;96.48
59531;BME280;45349;48.692;8.186;2022-07-01T06:11:38;98928.38;;;14.55;96.40
59531;BME280;45349;48.692;8.186;2022-07-01T06:14:05;98926.06;;;14.52;95.21
59531;BME280;45349;48.692;8.186;2022-07-01T06:16:32;98922.81;;;14.42;94.86
59531;BME280;45349;48.692;8.186;2022-07-01T06:18:59;98915.94;;;14.41;95.28
59531;BME280;45349;48.692;8.186;2022-07-01T06:21:28;98921.19;;;14.41;94.09
59531;BME280;45349;48.692;8.186;2022-07-01T06:23:55;98919.84;;;14.45;95.76
59531;BME280;45349;48.692;8.186;2022-07-01T06:26:22;98931.31;;;14.52;96.60
59531;BME280;45349;48.692;8.186;2022-07-01T06:28:49;98937.88;;;14.56;97.93
59531;BME280;45349;48.692;8.186;2022-07-01T06:31:16;98942.94;;;14.66;98.31
59531;BME280;45349;48.692;8.186;2022-07-01T06:33:43;98924.88;;;14.71;98.24
59531;BME280;45349;48.692;8.186;2022-07-01T06:36:10;98936.88;;;14.74;97.24
59531;BME280;45349;48.692;8.186;2022-07-01T06:38:41;98935.34;;;14.80;96.72
59531;BME280;45349;48.692;8.186;2022-07-01T06:41:08;98935.69;;;14.76;95.34
59531;BME280;45349;48.692;8.186;2022-07-01T06:43:53;98951.16;;;14.71;97.42
59531;BME280;45349;48.692;8.186;2022-07-01T06:46:20;98956.25;;;14.73;97.45
59531;BME280;45349;48.692;8.186;2022-07-01T06:48:47;98958.69;;;14.74;97.48
59531;BME280;45349;48.692;8.186;2022-07-01T06:51:14;98961.66;;;14.63;95.02
59531;BME280;45349;48.692;8.186;2022-07-01T06:53:43;98956.75;;;14.60;96.37
59531;BME280;45349;48.692;8.186;2022-07-01T06:56:12;98965.59;;;14.59;96.74
59531;BME280;45349;48.692;8.186;2022-07-01T06:58:40;98959.69;;;14.57;96.37
59531;BME280;45349;48.692;8.186;2022-07-01T07:01:06;98949.03;;;14.58;96.80
59531;BME280;45349;48.692;8.186;2022-07-01T07:03:33;98944.13;;;14.55;96.69
59531;BME280;45349;48.692;8.186;2022-07-01T07:06:02;98948.22;;;14.58;96.88
59531;BME280;45349;48.692;8.186;2022-07-01T07:08:30;98948.38;;;14.65;96.13
59531;BME280;45349;48.692;8.186;2022-07-01T07:11:17;98950.00;;;14.66;96.03
59531;BME280;45349;48.692;8.186;2022-07-01T07:13:45;98941.28;;;14.65;95.04
59531;BME280;45349;48.692;8.186;2022-07-01T07:16:12;98935.69;;;14.68;97.37
59531;BME280;45349;48.692;8.186;2022-07-01T07:18:38;98921.25;;;14.64;97.93
59531;BME280;45349;48.692;8.186;2022-07-01T07:21:05;98913.91;;;14.59;97.17
59531;BME280;45349;48.692;8.186;2022-07-01T07:23:33;98924.78;;;14.48;98.86
59531;BME280;45349;48.692;8.186;2022-07-01T07:26:00;98950.22;;;14.39;98.94
59531;BME280;45349;48.692;8.186;2022-07-01T07:28:29;98953.34;;;14.43;99.11
59531;BME280;45349;48.692;8.186;2022-07-01T07:30:56;98954.66;;;14.47;98.91
59531;BME280;45349;48.692;8.186;2022-07-01T07:33:23;98956.44;;;14.46;99.17
59531;BME280;45349;48.692;8.186;2022-07-01T07:35:50;98955.31;;;14.41;98.31
59531;BME280;45349;48.692;8.186;2022-07-01T07:38:17;98947.09;;;14.44;99.27
59531;BME280;45349;48.692;8.186;2022-07-01T07:40:44;98942.50;;;14.46;99.29
59531;BME280;45349;48.692;8.186;2022-07-01T07:43:12;98945.91;;;14.55;97.92
59531;BME280;45349;48.692;8.186;2022-07-01T07:45:40;98947.19;;;14.67;99.75
59531;BME280;45349;48.692;8.186;2022-07-01T07:48:07;98960.50;;;14.82;97.63
59531;BME280;45349;48.692;8.186;2022-07-01T07:50:35;98956.75;;;15.08;97.74
59531;BME280;45349;48.692;8.186;2022-07-01T07:53:02;98974.38;;;15.31;97.89
59531;BME280;45349;48.692;8.186;2022-07-01T07:55:47;98988.75;;;15.52;97.06
59531;BME280;45349;48.692;8.186;2022-07-01T07:58:14;98989.34;;;15.62;95.92
59531;BME280;45349;48.692;8.186;2022-07-01T08:00:42;98984.94;;;15.54;92.64
59531;BME280;45349;48.692;8.186;2022-07-01T08:03:09;98990.03;;;15.56;93.11
59531;BME280;45349;48.692;8.186;2022-07-01T08:05:35;98991.38;;;15.52;91.53
59531;BME280;45349;48.692;8.186;2022-07-01T08:08:03;98993.13;;;15.59;91.67
59531;BME280;45349;48.692;8.186;2022-07-01T08:10:31;98996.88;;;15.65;89.27
59531;BME280;45349;48.692;8.186;2022-07-01T08:12:58;99007.88;;;15.92;90.30
59531;BME280;45349;48.692;8.186;2022-07-01T08:15:49;99004.56;;;15.98;90.46
59531;BME280;45349;48.692;8.186;2022-07-01T08:18:16;99001.16;;;16.13;90.89
59531;BME280;45349;48.692;8.186;2022-07-01T08:20:43;99002.50;;;16.47;87.50
59531;BME280;45349;48.692;8.186;2022-07-01T08:23:11;99020.25;;;16.83;86.11
59531;BME280;45349;48.692;8.186;2022-07-01T08:25:38;99030.34;;;17.09;85.79
59531;BME280;45349;48.692;8.186;2022-07-01T08:28:05;99029.31;;;17.40;86.38
59531;BME280;45349;48.692;8.186;2022-07-01T08:30:32;99030.31;;;17.76;80.22
59531;BME280;45349;48.692;8.186;2022-07-01T08:33:00;99037.47;;;18.26;77.52
59531;BME280;45349;48.692;8.186;2022-07-01T08:35:46;99031.63;;;18.59;72.99
59531;BME280;45349;48.692;8.186;2022-07-01T08:38:31;99036.56;;;18.69;67.64
59531;BME280;45349;48.692;8.186;2022-07-01T08:40:59;99028.25;;;18.72;64.71
59531;BME280;45349;48.692;8.186;2022-07-01T08:43:27;99034.78;;;18.76;63.24
59531;BME280;45349;48.692;8.186;2022-07-01T08:45:54;99043.38;;;18.56;63.74
59531;BME280;45349;48.692;8.186;2022-07-01T08:48:22;99026.72;;;18.56;65.19
59531;BME280;45349;48.692;8.186;2022-07-01T08:50:50;99027.59;;;18.63;67.03
59531;BME280;45349;48.692;8.186;2022-07-01T08:53:17;99035.06;;;18.88;67.28
59531;BME280;45349;48.692;8.186;2022-07-01T08:55:44;99032.97;;;19.12;67.92
59531;BME280;45349;48.692;8.186;2022-07-01T08:58:28;99037.06;;;19.14;62.10
59531;BME280;45349;48.692;8.186;2022-07-01T09:01:14;99031.44;;;19.31;65.06
59531;BME280;45349;48.692;8.186;2022-07-01T09:03:43;99026.47;;;19.14;63.66
59531;BME280;45349;48.692;8.186;2022-07-01T09:06:14;99029.75;;;19.16;65.13
59531;BME280;45349;48.692;8.186;2022-07-01T09:08:41;99026.13;;;18.89;63.45
59531;BME280;45349;48.692;8.186;2022-07-01T09:11:12;99027.13;;;18.88;64.33
59531;BME280;45349;48.692;8.186;2022-07-01T09:13:40;99022.75;;;19.09;65.30
59531;BME280;45349;48.692;8.186;2022-07-01T09:16:16;99032.69;;;19.42;63.58
59531;BME280;45349;48.692;8.186;2022-07-01T09:21:38;99024.34;;;18.96;63.04
59531;BME280;45349;48.692;8.186;2022-07-01T09:24:22;99026.47;;;18.79;66.38
59531;BME280;45349;48.692;8.186;2022-07-01T09:26:52;99040.09;;;19.11;65.11
59531;BME280;45349;48.692;8.186;2022-07-01T09:29:19;99028.78;;;19.38;61.87
59531;BME280;45349;48.692;8.186;2022-07-01T09:31:48;99028.47;;;19.06;61.46
59531;BME280;45349;48.692;8.186;2022-07-01T09:34:15;99028.06;;;19.09;65.65
59531;BME280;45349;48.692;8.186;2022-07-01T09:36:51;99029.53;;;19.18;67.68
59531;BME280;45349;48.692;8.186;2022-07-01T09:39:18;99029.00;;;19.36;63.89
59531;BME280;45349;48.692;8.186;2022-07-01T09:41:45;99028.78;;;19.31;61.95
59531;BME280;45349;48.692;8.186;2022-07-01T09:44:12;99032.34;;;19.72;60.37
59531;BME280;45349;48.692;8.186;2022-07-01T09:46:51;99031.13;;;19.68;63.64
59531;BME280;45349;48.692;8.186;2022-07-01T09:49:18;99030.72;;;19.71;61.00
59531;BME280;45349;48.692;8.186;2022-07-01T09:51:46;99030.28;;;19.60;61.44
59531;BME280;45349;48.692;8.186;2022-07-01T09:54:15;99032.31;;;19.65;59.80
59531;BME280;45349;48.692;8.186;2022-07-01T09:56:41;99037.84;;;19.64;62.33
59531;BME280;45349;48.692;8.186;2022-07-01T09:59:08;99036.41;;;19.68;58.76
59531;BME280;45349;48.692;8.186;2022-07-01T10:01:36;99040.59;;;20.04;59.78
59531;BME280;45349;48.692;8.186;2022-07-01T10:04:07;99034.28;;;20.05;58.00
59531;BME280;45349;48.692;8.186;2022-07-01T10:06:48;99035.03;;;19.85;63.17
59531;BME280;45349;48.692;8.186;2022-07-01T10:09:39;99046.09;;;20.16;60.73
59531;BME280;45349;48.692;8.186;2022-07-01T10:12:26;99039.78;;;20.57;55.21
59531;BME280;45349;48.692;8.186;2022-07-01T10:14:56;99048.13;;;21.33;54.45
59531;BME280;45349;48.692;8.186;2022-07-01T10:17:27;99049.53;;;21.43;55.01
59531;BME280;45349;48.692;8.186;2022-07-01T10:19:55;99041.81;;;21.80;54.26
59531;BME280;45349;48.692;8.186;2022-07-01T10:22:28;99044.34;;;21.61;56.60
59531;BME280;45349;48.692;8.186;2022-07-01T10:24:56;99047.66;;;21.95;53.96
59531;BME280;45349;48.692;8.186;2022-07-01T10:27:43;99045.91;;;21.30;55.57
59531;BME280;45349;48.692;8.186;2022-07-01T10:30:14;99040.91;;;21.08;58.92
59531;BME280;45349;48.692;8.186;2022-07-01T10:32:42;99053.44;;;21.40;58.11
59531;BME280;45349;48.692;8.186;2022-07-01T10:35:13;99052.31;;;21.16;55.87
59531;BME280;45349;48.692;8.186;2022-07-01T10:37:59;99051.31;;;21.62;52.86
59531;BME280;45349;48.692;8.186;2022-07-01T10:40:42;99047.63;;;21.11;55.18
59531;BME280;45349;48.692;8.186;2022-07-01T10:43:14;99056.06;;;20.81;57.56
59531;BME280;45349;48.692;8.186;2022-07-01T10:45:43;99047.28;;;20.74;59.64
59531;BME280;45349;48.692;8.186;2022-07-01T10:48:21;99051.78;;;20.80;59.13
59531;BME280;45349;48.692;8.186;2022-07-01T10:50:49;99042.38;;;20.91;58.12
59531;BME280;45349;48.692;8.186;2022-07-01T10:53:18;99051.03;;;21.32;59.05
59531;BME280;45349;48.692;8.186;2022-07-01T10:55:47;99045.38;;;21.67;55.34
59531;BME280;45349;48.692;8.186;2022-07-01T10:58:15;99050.06;;;22.29;51.36
59531;BME280;45349;48.692;8.186;2022-07-01T11:00:44;99056.28;;;22.41;49.85
59531;BME280;45349;48.692;8.186;2022-07-01T11:03:20;99057.63;;;22.76;50.79
59531;BME280;45349;48.692;8.186;2022-07-01T11:05:50;99053.34;;;22.75;52.16
59531;BME280;45349;48.692;8.186;2022-07-01T11:08:19;99046.63;;;22.47;48.14
59531;BME280;45349;48.692;8.186;2022-07-01T11:10:51;99049.34;;;22.15;48.36
59531;BME280;45349;48.692;8.186;2022-07-01T11:13:19;99049.09;;;21.91;48.21
59531;BME280;45349;48.692;8.186;2022-07-01T11:15:47;99053.66;;;21.77;46.19
59531;BME280;45349;48.692;8.186;2022-07-01T11:18:15;99053.53;;;21.72;51.58
59531;BME280;45349;48.692;8.186;2022-07-01T11:20:43;99054.97;;;22.00;51.95
59531;BME280;45349;48.692;8.186;2022-07-01T11:23:11;99057.28;;;22.47;52.93
59531;BME280;45349;48.692;8.186;2022-07-01T11:25:39;99055.69;;;22.65;49.37
59531;BME280;45349;48.692;8.186;2022-07-01T11:28:07;99060.25;;;22.58;48.75
59531;BME280;45349;48.692;8.186;2022-07-01T11:30:33;99059.69;;;22.74;50.46
59531;BME280;45349;48.692;8.186;2022-07-01T11:33:00;99069.31;;;22.24;48.00
59531;BME280;45349;48.692;8.186;2022-07-01T11:35:28;99067.06;;;21.64;49.27
59531;BME280;45349;48.692;8.186;2022-07-01T11:38:14;99070.53;;;21.05;49.63
59531;BME280;45349;48.692;8.186;2022-07-01T11:41:02;99069.72;;;20.98;49.51
59531;BME280;45349;48.692;8.186;2022-07-01T11:43:30;99071.31;;;21.13;50.21
59531;BME280;45349;48.692;8.186;2022-07-01T11:46:00;99079.91;;;20.68;51.38
59531;BME280;45349;48.692;8.186;2022-07-01T11:48:32;99079.31;;;20.72;51.54
59531;BME280;45349;48.692;8.186;2022-07-01T11:51:01;99080.34;;;20.85;53.89
59531;BME280;45349;48.692;8.186;2022-07-01T11:53:31;99079.75;;;21.48;53.85
59531;BME280;45349;48.692;8.186;2022-07-01T11:56:00;99064.03;;;22.18;49.27
59531;BME280;45349;48.692;8.186;2022-07-01T11:58:43;99073.97;;;22.61;49.37
59531;BME280;45349;48.692;8.186;2022-07-01T12:01:31;99067.38;;;22.64;48.09
59531;BME280;45349;48.692;8.186;2022-07-01T12:04:00;99060.66;;;23.17;46.74
59531;BME280;45349;48.692;8.186;2022-07-01T12:06:28;99058.88;;;22.92;46.87
59531;BME280;45349;48.692;8.186;2022-07-01T12:08:55;99045.53;;;23.18;45.69
59531;BME280;45349;48.692;8.186;2022-07-01T12:11:45;99054.28;;;22.62;42.79
59531;BME280;45349;48.692;8.186;2022-07-01T12:14:19;99060.28;;;21.61;47.39
59531;BME280;45349;48.692;8.186;2022-07-01T12:16:46;99058.56;;;22.38;46.80
59531;BME280;45349;48.692;8.186;2022-07-01T12:19:14;99050.97;;;22.67;45.11
59531;BME280;45349;48.692;8.186;2022-07-01T12:21:49;99041.19;;;23.54;43.99
59531;BME280;45349;48.692;8.186;2022-07-01T12:24:16;99035.50;;;23.50;42.65
59531;BME280;45349;48.692;8.186;2022-07-01T12:26:50;99044.72;;;23.36;46.21
59531;BME280;45349;48.692;8.186;2022-07-01T12:29:19;99045.13;;;23.94;42.96
59531;BME280;45349;48.692;8.186;2022-07-01T12:31:57;99029.47;;;23.24;41.22
59531;BME280;45349;48.692;8.186;2022-07-01T12:34:36;99038.69;;;24.01;39.48
59531;BME280;45349;48.692;8.186;2022-07-01T12:37:07;99041.16;;;23.42;40.29
59531;BME280;45349;48.692;8.186;2022-07-01T12:39:42;99040.19;;;24.09;44.43
59531;BME280;45349;48.692;8.186;2022-07-01T12:42:25;99044.31;;;24.36;40.20
59531;BME280;45349;48.692;8.186;2022-07-01T12:44:52;99044.88;;;24.14;42.24
59531;BME280;45349;48.692;8.186;2022-07-01T12:47:20;99036.47;;;23.37;40.78
59531;BME280;45349;48.692;8.186;2022-07-01T12:49:47;99038.25;;;23.43;43.97
59531;BME280;45349;48.692;8.186;2022-07-01T12:52:25;99032.97;;;23.25;44.32
59531;BME280;45349;48.692;8.186;2022-07-01T12:54:55;99043.81;;;23.05;44.17
59531;BME280;45349;48.692;8.186;2022-07-01T12:57:31;99044.91;;;22.60;45.09
59531;BME280;45349;48.692;8.186;2022-07-01T12:59:58;99047.56;;;22.34;43.59
59531;BME280;45349;48.692;8.186;2022-07-01T13:02:26;99046.97;;;22.07;46.74
59531;BME280;45349;48.692;8.186;2022-07-01T13:04:53;99049.38;;;22.34;44.05
59531;BME280;45349;48.692;8.186;2022-07-01T13:07:19;99050.53;;;22.19;43.80
59531;BME280;45349;48.692;8.186;2022-07-01T13:09:46;99059.06;;;21.96;46.71
59531;BME280;45349;48.692;8.186;2022-07-01T13:12:13;99059.16;;;21.82;47.82